sensor_id;sensor_type;location;lat;lon;timestamp;P1;durP1;ratioP1;P2;durP2;ratioP2
12689;SDS011;6409;56.294;14.480;2023-03-14T00:01:56;7.03;;;2.17;;
12689;SDS011;6409;56.294;14.480;2023-03-14T00:04:23;7.30;;;2.43;;
12689;SDS011;6409;56.294;14.480;2023-03-14T00:06:50;5.17;;;2.17;;
12689;SDS011;6409;56.294;14.480;2023-03-14T00:09:17;7.30;;;1.93;;
12689;SDS011;6409;56.294;14.480;2023-03-14T00:11:44;6.93;;;2.10;;
12689;SDS011;6409;56.294;14.480;2023-03-14T00:14:11;7.80;;;2.17;;
12689;SDS011;6409;56.294;14.480;2023-03-14T00:16:40;3.53;;;1.93;;
12689;SDS011;6409;56.294;14.480;2023-03-14T00:19:08;6.00;;;2.40;;
12689;SDS011;6409;56.294;14.480;2023-03-14T00:21:35;9.23;;;2.17;;
12689;SDS011;6409;56.294;14.480;2023-03-14T00:24:02;8.27;;;2.80;;
12689;SDS011;6409;56.294;14.480;2023-03-14T00:26:30;6.27;;;2.07;;
12689;SDS011;6409;56.294;14.480;2023-03-14T00:28:57;13.27;;;2.53;;
12689;SDS011;6409;56.294;14.480;2023-03-14T00:31:24;9.97;;;2.60;;
12689;SDS011;6409;56.294;14.480;2023-03-14T00:33:52;5.43;;;2.17;;
12689;SDS011;6409;56.294;14.480;2023-03-14T00:36:20;8.70;;;1.73;;
12689;SDS011;6409;56.294;14.480;2023-03-14T00:38:49;6.83;;;2.13;;
12689;SDS011;6409;56.294;14.480;2023-03-14T00:41:17;13.87;;;2.70;;
12689;SDS011;6409;56.294;14.480;2023-03-14T00:43:45;3.00;;;1.50;;
12689;SDS011;6409;56.294;14.480;2023-03-14T00:46:12;5.20;;;1.53;;
12689;SDS011;6409;56.294;14.480;2023-03-14T00:48:39;5.00;;;1.77;;
12689;SDS011;6409;56.294;14.480;2023-03-14T00:51:07;5.63;;;1.77;;
12689;SDS011;6409;56.294;14.480;2023-03-14T00:53:36;7.73;;;2.80;;
12689;SDS011;6409;56.294;14.480;2023-03-14T00:56:04;5.50;;;2.27;;
12689;SDS011;6409;56.294;14.480;2023-03-14T00:58:32;6.87;;;2.00;;
12689;SDS011;6409;56.294;14.480;2023-03-14T01:00:59;3.67;;;1.97;;
12689;SDS011;6409;56.294;14.480;2023-03-14T01:03:30;9.10;;;2.30;;
12689;SDS011;6409;56.294;14.480;2023-03-14T01:06:05;8.70;;;2.47;;
12689;SDS011;6409;56.294;14.480;2023-03-14T01:08:33;14.77;;;1.80;;
12689;SDS011;6409;56.294;14.480;2023-03-14T01:11:04;11.47;;;2.30;;
12689;SDS011;6409;56.294;14.480;2023-03-14T01:13:32;2.50;;;1.53;;
12689;SDS011;6409;56.294;14.480;2023-03-14T01:16:00;4.67;;;1.47;;
12689;SDS011;6409;56.294;14.480;2023-03-14T01:18:29;10.67;;;2.60;;
12689;SDS011;6409;56.294;14.480;2023-03-14T01:20:56;3.23;;;1.50;;
12689;SDS011;6409;56.294;14.480;2023-03-14T01:23:23;8.40;;;2.50;;
12689;SDS011;6409;56.294;14.480;2023-03-14T01:25:51;5.03;;;2.33;;
12689;SDS011;6409;56.294;14.480;2023-03-14T01:28:18;6.30;;;2.13;;
12689;SDS011;6409;56.294;14.480;2023-03-14T01:30:45;9.93;;;2.73;;
12689;SDS011;6409;56.294;14.480;2023-03-14T01:33:12;8.83;;;1.67;;
12689;SDS011;6409;56.294;14.480;2023-03-14T01:35:39;11.00;;;2.03;;
12689;SDS011;6409;56.294;14.480;2023-03-14T01:38:06;7.37;;;1.87;;
12689;SDS011;6409;56.294;14.480;2023-03-14T01:40:33;1.50;;;1.40;;
12689;SDS011;6409;56.294;14.480;2023-03-14T01:43:12;10.30;;;1.80;;
12689;SDS011;6409;56.294;14.480;2023-03-14T01:48:44;3.03;;;1.27;;
12689;SDS011;6409;56.294;14.480;2023-03-14T01:51:15;4.10;;;2.03;;
12689;SDS011;6409;56.294;14.480;2023-03-14T01:53:45;4.10;;;1.53;;
12689;SDS011;6409;56.294;14.480;2023-03-14T01:56:14;9.80;;;2.33;;
12689;SDS011;6409;56.294;14.480;2023-03-14T01:58:44;2.13;;;1.57;;
12689;SDS011;6409;56.294;14.480;2023-03-14T02:01:13;12.70;;;2.63;;
12689;SDS011;6409;56.294;14.480;2023-03-14T02:03:43;4.17;;;1.93;;
12689;SDS011;6409;56.294;14.480;2023-03-14T02:06:13;6.53;;;1.67;;
12689;SDS011;6409;56.294;14.480;2023-03-14T02:08:41;4.47;;;1.60;;
12689;SDS011;6409;56.294;14.480;2023-03-14T02:11:08;9.37;;;2.00;;
12689;SDS011;6409;56.294;14.480;2023-03-14T02:13:35;14.67;;;2.87;;
12689;SDS011;6409;56.294;14.480;2023-03-14T02:16:04;4.40;;;2.13;;
12689;SDS011;6409;56.294;14.480;2023-03-14T02:18:31;10.13;;;2.17;;
12689;SDS011;6409;56.294;14.480;2023-03-14T02:21:00;6.50;;;1.63;;
12689;SDS011;6409;56.294;14.480;2023-03-14T02:23:32;7.63;;;1.73;;
12689;SDS011;6409;56.294;14.480;2023-03-14T02:26:03;3.73;;;1.67;;
12689;SDS011;6409;56.294;14.480;2023-03-14T02:28:35;9.47;;;2.27;;
12689;SDS011;6409;56.294;14.480;2023-03-14T02:31:02;2.93;;;1.97;;
12689;SDS011;6409;56.294;14.480;2023-03-14T02:33:29;7.90;;;3.00;;
12689;SDS011;6409;56.294;14.480;2023-03-14T02:35:57;8.93;;;1.63;;
12689;SDS011;6409;56.294;14.480;2023-03-14T02:38:27;3.10;;;1.63;;
12689;SDS011;6409;56.294;14.480;2023-03-14T02:40:57;6.07;;;1.47;;
12689;SDS011;6409;56.294;14.480;2023-03-14T02:43:26;15.07;;;2.03;;
12689;SDS011;6409;56.294;14.480;2023-03-14T02:45:55;5.00;;;1.30;;
12689;SDS011;6409;56.294;14.480;2023-03-14T02:48:23;9.93;;;1.87;;
12689;SDS011;6409;56.294;14.480;2023-03-14T02:50:52;5.70;;;2.37;;
12689;SDS011;6409;56.294;14.480;2023-03-14T02:53:21;13.57;;;2.43;;
12689;SDS011;6409;56.294;14.480;2023-03-14T02:55:51;3.97;;;1.87;;
12689;SDS011;6409;56.294;14.480;2023-03-14T02:58:18;1.23;;;1.17;;
12689;SDS011;6409;56.294;14.480;2023-03-14T03:00:46;4.97;;;1.50;;
12689;SDS011;6409;56.294;14.480;2023-03-14T03:03:14;7.20;;;1.77;;
12689;SDS011;6409;56.294;14.480;2023-03-14T03:05:41;6.83;;;1.80;;
12689;SDS011;6409;56.294;14.480;2023-03-14T03:08:09;4.77;;;1.77;;
12689;SDS011;6409;56.294;14.480;2023-03-14T03:10:36;10.27;;;1.77;;
12689;SDS011;6409;56.294;14.480;2023-03-14T03:13:03;3.13;;;2.03;;
12689;SDS011;6409;56.294;14.480;2023-03-14T03:15:30;8.40;;;2.80;;
12689;SDS011;6409;56.294;14.480;2023-03-14T03:17:57;7.80;;;2.33;;
12689;SDS011;6409;56.294;14.480;2023-03-14T03:20:25;8.07;;;1.93;;
12689;SDS011;6409;56.294;14.480;2023-03-14T03:22:52;3.67;;;1.90;;
12689;SDS011;6409;56.294;14.480;2023-03-14T03:25:19;7.07;;;2.17;;
12689;SDS011;6409;56.294;14.480;2023-03-14T03:27:46;15.80;;;3.10;;
12689;SDS011;6409;56.294;14.480;2023-03-14T03:30:13;6.83;;;2.00;;
12689;SDS011;6409;56.294;14.480;2023-03-14T03:32:41;3.73;;;1.53;;
12689;SDS011;6409;56.294;14.480;2023-03-14T03:35:08;2.00;;;1.73;;
12689;SDS011;6409;56.294;14.480;2023-03-14T03:37:37;6.37;;;2.23;;
12689;SDS011;6409;56.294;14.480;2023-03-14T03:40:04;9.60;;;1.63;;
12689;SDS011;6409;56.294;14.480;2023-03-14T03:42:32;7.63;;;2.07;;
12689;SDS011;6409;56.294;14.480;2023-03-14T03:45:00;7.80;;;2.03;;
12689;SDS011;6409;56.294;14.480;2023-03-14T03:47:27;3.30;;;1.83;;
12689;SDS011;6409;56.294;14.480;2023-03-14T03:49:55;3.17;;;1.87;;
12689;SDS011;6409;56.294;14.480;2023-03-14T03:52:22;6.47;;;1.93;;
12689;SDS011;6409;56.294;14.480;2023-03-14T03:54:51;2.77;;;1.60;;
12689;SDS011;6409;56.294;14.480;2023-03-14T03:57:18;5.77;;;1.63;;
12689;SDS011;6409;56.294;14.480;2023-03-14T03:59:44;5.47;;;1.73;;
12689;SDS011;6409;56.294;14.480;2023-03-14T04:02:11;12.47;;;2.10;;
12689;SDS011;6409;56.294;14.480;2023-03-14T04:04:38;6.37;;;2.30;;
12689;SDS011;6409;56.294;14.480;2023-03-14T04:07:05;7.00;;;1.97;;
12689;SDS011;6409;56.294;14.480;2023-03-14T04:09:32;6.03;;;2.00;;
12689;SDS011;6409;56.294;14.480;2023-03-14T04:12:00;2.60;;;2.07;;
12689;SDS011;6409;56.294;14.480;2023-03-14T04:14:27;2.33;;;2.13;;
12689;SDS011;6409;56.294;14.480;2023-03-14T04:16:54;3.47;;;1.97;;
12689;SDS011;6409;56.294;14.480;2023-03-14T04:19:21;8.23;;;3.13;;
12689;SDS011;6409;56.294;14.480;2023-03-14T04:21:48;6.77;;;2.33;;
12689;SDS011;6409;56.294;14.480;2023-03-14T04:24:15;5.93;;;2.40;;
12689;SDS011;6409;56.294;14.480;2023-03-14T04:26:42;10.07;;;1.80;;
12689;SDS011;6409;56.294;14.480;2023-03-14T04:29:10;8.27;;;3.17;;
12689;SDS011;6409;56.294;14.480;2023-03-14T04:31:37;2.10;;;1.57;;
12689;SDS011;6409;56.294;14.480;2023-03-14T04:34:04;11.23;;;2.37;;
12689;SDS011;6409;56.294;14.480;2023-03-14T04:36:31;3.43;;;1.37;;
12689;SDS011;6409;56.294;14.480;2023-03-14T04:38:58;3.93;;;1.90;;
12689;SDS011;6409;56.294;14.480;2023-03-14T04:41:25;13.33;;;2.90;;
12689;SDS011;6409;56.294;14.480;2023-03-14T04:43:52;13.30;;;2.67;;
12689;SDS011;6409;56.294;14.480;2023-03-14T04:46:20;8.87;;;2.33;;
12689;SDS011;6409;56.294;14.480;2023-03-14T04:48:47;9.93;;;2.33;;
12689;SDS011;6409;56.294;14.480;2023-03-14T04:51:14;1.87;;;1.30;;
12689;SDS011;6409;56.294;14.480;2023-03-14T04:53:40;6.87;;;2.40;;
12689;SDS011;6409;56.294;14.480;2023-03-14T04:56:08;2.37;;;2.07;;
12689;SDS011;6409;56.294;14.480;2023-03-14T04:58:37;9.27;;;2.27;;
12689;SDS011;6409;56.294;14.480;2023-03-14T05:01:05;10.90;;;2.40;;
12689;SDS011;6409;56.294;14.480;2023-03-14T05:03:35;3.40;;;1.90;;
12689;SDS011;6409;56.294;14.480;2023-03-14T05:06:03;2.83;;;1.87;;
12689;SDS011;6409;56.294;14.480;2023-03-14T05:08:30;2.97;;;1.77;;
12689;SDS011;6409;56.294;14.480;2023-03-14T05:10:57;5.53;;;2.37;;
12689;SDS011;6409;56.294;14.480;2023-03-14T05:13:24;12.97;;;2.73;;
12689;SDS011;6409;56.294;14.480;2023-03-14T05:15:51;8.87;;;2.53;;
12689;SDS011;6409;56.294;14.480;2023-03-14T05:18:20;11.60;;;2.40;;
12689;SDS011;6409;56.294;14.480;2023-03-14T05:20:51;4.80;;;2.03;;
12689;SDS011;6409;56.294;14.480;2023-03-14T05:23:18;10.40;;;2.20;;
12689;SDS011;6409;56.294;14.480;2023-03-14T05:25:45;7.23;;;1.80;;
12689;SDS011;6409;56.294;14.480;2023-03-14T05:28:11;13.17;;;2.20;;
12689;SDS011;6409;56.294;14.480;2023-03-14T05:30:38;3.23;;;1.40;;
12689;SDS011;6409;56.294;14.480;2023-03-14T05:33:05;4.17;;;1.80;;
12689;SDS011;6409;56.294;14.480;2023-03-14T05:35:32;2.90;;;1.70;;
12689;SDS011;6409;56.294;14.480;2023-03-14T05:38:00;3.57;;;1.90;;
12689;SDS011;6409;56.294;14.480;2023-03-14T05:40:27;6.50;;;1.63;;
12689;SDS011;6409;56.294;14.480;2023-03-14T05:42:54;4.17;;;1.83;;
12689;SDS011;6409;56.294;14.480;2023-03-14T05:45:21;2.43;;;1.70;;
12689;SDS011;6409;56.294;14.480;2023-03-14T05:47:48;4.90;;;1.90;;
12689;SDS011;6409;56.294;14.480;2023-03-14T05:50:15;9.87;;;1.67;;
12689;SDS011;6409;56.294;14.480;2023-03-14T05:52:42;10.27;;;2.40;;
12689;SDS011;6409;56.294;14.480;2023-03-14T05:55:10;6.97;;;2.30;;
12689;SDS011;6409;56.294;14.480;2023-03-14T05:57:37;8.40;;;2.33;;
12689;SDS011;6409;56.294;14.480;2023-03-14T06:00:05;1.60;;;1.43;;
12689;SDS011;6409;56.294;14.480;2023-03-14T06:02:32;6.27;;;1.93;;
12689;SDS011;6409;56.294;14.480;2023-03-14T06:04:59;6.53;;;1.90;;
12689;SDS011;6409;56.294;14.480;2023-03-14T06:07:26;3.07;;;1.80;;
12689;SDS011;6409;56.294;14.480;2023-03-14T06:09:53;3.33;;;1.40;;
12689;SDS011;6409;56.294;14.480;2023-03-14T06:12:21;7.97;;;2.17;;
12689;SDS011;6409;56.294;14.480;2023-03-14T06:14:48;6.50;;;2.60;;
12689;SDS011;6409;56.294;14.480;2023-03-14T06:17:15;2.30;;;1.53;;
12689;SDS011;6409;56.294;14.480;2023-03-14T06:19:42;8.83;;;2.70;;
12689;SDS011;6409;56.294;14.480;2023-03-14T06:22:09;3.60;;;2.33;;
12689;SDS011;6409;56.294;14.480;2023-03-14T06:24:36;9.33;;;1.67;;
12689;SDS011;6409;56.294;14.480;2023-03-14T06:27:03;8.23;;;1.97;;
12689;SDS011;6409;56.294;14.480;2023-03-14T06:29:32;4.77;;;2.23;;
12689;SDS011;6409;56.294;14.480;2023-03-14T06:31:59;5.97;;;2.27;;
12689;SDS011;6409;56.294;14.480;2023-03-14T06:34:25;6.23;;;2.13;;
12689;SDS011;6409;56.294;14.480;2023-03-14T06:36:53;6.03;;;1.70;;
12689;SDS011;6409;56.294;14.480;2023-03-14T06:39:20;10.17;;;2.30;;
12689;SDS011;6409;56.294;14.480;2023-03-14T06:41:47;3.10;;;1.80;;
12689;SDS011;6409;56.294;14.480;2023-03-14T06:44:14;5.37;;;2.13;;
12689;SDS011;6409;56.294;14.480;2023-03-14T06:46:43;7.90;;;2.43;;
12689;SDS011;6409;56.294;14.480;2023-03-14T06:49:09;13.07;;;2.27;;
12689;SDS011;6409;56.294;14.480;2023-03-14T06:51:36;3.03;;;1.73;;
12689;SDS011;6409;56.294;14.480;2023-03-14T06:54:03;6.50;;;2.43;;
12689;SDS011;6409;56.294;14.480;2023-03-14T06:56:30;1.77;;;1.67;;
12689;SDS011;6409;56.294;14.480;2023-03-14T06:58:57;4.13;;;1.57;;
12689;SDS011;6409;56.294;14.480;2023-03-14T07:01:25;1.97;;;1.43;;
12689;SDS011;6409;56.294;14.480;2023-03-14T07:03:54;7.60;;;2.03;;
12689;SDS011;6409;56.294;14.480;2023-03-14T07:06:21;2.80;;;1.70;;
12689;SDS011;6409;56.294;14.480;2023-03-14T07:08:48;7.00;;;2.03;;
12689;SDS011;6409;56.294;14.480;2023-03-14T07:11:15;1.70;;;1.53;;
12689;SDS011;6409;56.294;14.480;2023-03-14T07:13:42;3.20;;;2.10;;
12689;SDS011;6409;56.294;14.480;2023-03-14T07:16:08;4.20;;;1.87;;
12689;SDS011;6409;56.294;14.480;2023-03-14T07:18:37;4.30;;;1.30;;
12689;SDS011;6409;56.294;14.480;2023-03-14T07:21:06;5.77;;;2.23;;
12689;SDS011;6409;56.294;14.480;2023-03-14T07:23:34;5.10;;;1.60;;
12689;SDS011;6409;56.294;14.480;2023-03-14T07:26:01;2.73;;;1.73;;
12689;SDS011;6409;56.294;14.480;2023-03-14T07:28:28;7.70;;;1.60;;
12689;SDS011;6409;56.294;14.480;2023-03-14T07:30:55;5.60;;;1.80;;
12689;SDS011;6409;56.294;14.480;2023-03-14T07:33:22;2.83;;;2.00;;
12689;SDS011;6409;56.294;14.480;2023-03-14T07:35:49;3.73;;;2.10;;
12689;SDS011;6409;56.294;14.480;2023-03-14T07:38:17;4.43;;;1.60;;
12689;SDS011;6409;56.294;14.480;2023-03-14T07:40:44;7.10;;;2.10;;
12689;SDS011;6409;56.294;14.480;2023-03-14T07:43:11;1.60;;;1.50;;
12689;SDS011;6409;56.294;14.480;2023-03-14T07:45:38;5.20;;;1.97;;
12689;SDS011;6409;56.294;14.480;2023-03-14T07:48:05;2.27;;;1.83;;
12689;SDS011;6409;56.294;14.480;2023-03-14T07:50:32;11.93;;;2.13;;
12689;SDS011;6409;56.294;14.480;2023-03-14T07:52:58;4.10;;;1.70;;
12689;SDS011;6409;56.294;14.480;2023-03-14T07:55:27;4.60;;;2.00;;
12689;SDS011;6409;56.294;14.480;2023-03-14T07:57:54;5.10;;;1.40;;
12689;SDS011;6409;56.294;14.480;2023-03-14T08:00:21;4.53;;;2.10;;
12689;SDS011;6409;56.294;14.480;2023-03-14T08:02:48;9.40;;;3.03;;
12689;SDS011;6409;56.294;14.480;2023-03-14T08:05:15;2.73;;;1.93;;
12689;SDS011;6409;56.294;14.480;2023-03-14T08:07:42;3.87;;;2.00;;
12689;SDS011;6409;56.294;14.480;2023-03-14T08:10:09;7.43;;;2.33;;
12689;SDS011;6409;56.294;14.480;2023-03-14T08:12:39;3.73;;;2.10;;
12689;SDS011;6409;56.294;14.480;2023-03-14T08:15:06;8.30;;;2.47;;
12689;SDS011;6409;56.294;14.480;2023-03-14T08:17:34;6.33;;;2.43;;
12689;SDS011;6409;56.294;14.480;2023-03-14T08:20:01;3.10;;;2.43;;
12689;SDS011;6409;56.294;14.480;2023-03-14T08:22:31;7.53;;;3.03;;
12689;SDS011;6409;56.294;14.480;2023-03-14T08:24:58;7.10;;;1.67;;
12689;SDS011;6409;56.294;14.480;2023-03-14T08:27:25;6.17;;;2.50;;
12689;SDS011;6409;56.294;14.480;2023-03-14T08:29:53;2.60;;;1.87;;
12689;SDS011;6409;56.294;14.480;2023-03-14T08:32:20;4.43;;;2.17;;
12689;SDS011;6409;56.294;14.480;2023-03-14T08:34:48;3.27;;;1.87;;
12689;SDS011;6409;56.294;14.480;2023-03-14T08:37:15;3.30;;;1.93;;
12689;SDS011;6409;56.294;14.480;2023-03-14T08:39:44;3.33;;;2.07;;
12689;SDS011;6409;56.294;14.480;2023-03-14T08:42:11;4.67;;;1.90;;
12689;SDS011;6409;56.294;14.480;2023-03-14T08:44:37;4.10;;;1.67;;
12689;SDS011;6409;56.294;14.480;2023-03-14T08:47:06;2.90;;;1.93;;
12689;SDS011;6409;56.294;14.480;2023-03-14T08:49:33;4.87;;;1.77;;
12689;SDS011;6409;56.294;14.480;2023-03-14T08:52:01;3.93;;;1.80;;
12689;SDS011;6409;56.294;14.480;2023-03-14T08:54:28;2.60;;;1.93;;
12689;SDS011;6409;56.294;14.480;2023-03-14T08:56:55;9.50;;;1.67;;
12689;SDS011;6409;56.294;14.480;2023-03-14T08:59:22;7.27;;;2.60;;
12689;SDS011;6409;56.294;14.480;2023-03-14T09:01:49;7.87;;;2.53;;
12689;SDS011;6409;56.294;14.480;2023-03-14T09:04:17;3.33;;;2.20;;
12689;SDS011;6409;56.294;14.480;2023-03-14T09:06:44;3.37;;;2.17;;
12689;SDS011;6409;56.294;14.480;2023-03-14T09:09:11;4.90;;;2.33;;
12689;SDS011;6409;56.294;14.480;2023-03-14T09:11:38;7.83;;;2.07;;
12689;SDS011;6409;56.294;14.480;2023-03-14T09:14:05;1.67;;;1.57;;
12689;SDS011;6409;56.294;14.480;2023-03-14T09:16:33;3.00;;;2.33;;
12689;SDS011;6409;56.294;14.480;2023-03-14T09:19:00;4.67;;;2.10;;
12689;SDS011;6409;56.294;14.480;2023-03-14T09:21:28;2.17;;;2.00;;
12689;SDS011;6409;56.294;14.480;2023-03-14T09:23:55;3.70;;;2.00;;
12689;SDS011;6409;56.294;14.480;2023-03-14T09:26:22;1.93;;;1.80;;
12689;SDS011;6409;56.294;14.480;2023-03-14T09:28:49;3.30;;;1.90;;
12689;SDS011;6409;56.294;14.480;2023-03-14T09:31:16;2.97;;;2.00;;
12689;SDS011;6409;56.294;14.480;2023-03-14T09:33:43;3.10;;;2.30;;
12689;SDS011;6409;56.294;14.480;2023-03-14T09:36:11;2.13;;;1.93;;
12689;SDS011;6409;56.294;14.480;2023-03-14T09:38:39;2.13;;;1.90;;
12689;SDS011;6409;56.294;14.480;2023-03-14T09:41:11;5.53;;;2.17;;
12689;SDS011;6409;56.294;14.480;2023-03-14T09:43:41;6.57;;;1.83;;
12689;SDS011;6409;56.294;14.480;2023-03-14T09:46:10;3.33;;;2.00;;
12689;SDS011;6409;56.294;14.480;2023-03-14T09:48:37;2.10;;;1.80;;
12689;SDS011;6409;56.294;14.480;2023-03-14T09:51:05;4.87;;;2.40;;
12689;SDS011;6409;56.294;14.480;2023-03-14T09:53:39;4.47;;;2.43;;
12689;SDS011;6409;56.294;14.480;2023-03-14T09:56:11;1.70;;;1.60;;
12689;SDS011;6409;56.294;14.480;2023-03-14T09:58:40;5.30;;;2.27;;
12689;SDS011;6409;56.294;14.480;2023-03-14T10:01:08;1.77;;;1.50;;
12689;SDS011;6409;56.294;14.480;2023-03-14T10:03:39;6.77;;;2.40;;
12689;SDS011;6409;56.294;14.480;2023-03-14T10:06:09;3.20;;;2.37;;
12689;SDS011;6409;56.294;14.480;2023-03-14T10:08:38;5.57;;;1.87;;
12689;SDS011;6409;56.294;14.480;2023-03-14T10:11:09;3.50;;;1.70;;
12689;SDS011;6409;56.294;14.480;2023-03-14T10:13:46;3.20;;;2.00;;
12689;SDS011;6409;56.294;14.480;2023-03-14T10:16:15;4.63;;;1.80;;
12689;SDS011;6409;56.294;14.480;2023-03-14T10:18:44;4.90;;;2.03;;
12689;SDS011;6409;56.294;14.480;2023-03-14T10:21:17;3.70;;;1.53;;
12689;SDS011;6409;56.294;14.480;2023-03-14T10:23:48;5.53;;;2.27;;
12689;SDS011;6409;56.294;14.480;2023-03-14T10:26:17;3.90;;;1.77;;
12689;SDS011;6409;56.294;14.480;2023-03-14T10:28:46;1.50;;;1.40;;
12689;SDS011;6409;56.294;14.480;2023-03-14T10:31:16;11.77;;;1.90;;
12689;SDS011;6409;56.294;14.480;2023-03-14T10:33:43;3.47;;;1.83;;
12689;SDS011;6409;56.294;14.480;2023-03-14T10:36:25;2.27;;;2.00;;
12689;SDS011;6409;56.294;14.480;2023-03-14T10:38:56;6.53;;;1.53;;
12689;SDS011;6409;56.294;14.480;2023-03-14T10:41:26;1.60;;;1.50;;
12689;SDS011;6409;56.294;14.480;2023-03-14T10:43:54;3.37;;;1.40;;
12689;SDS011;6409;56.294;14.480;2023-03-14T10:46:23;5.00;;;1.50;;
12689;SDS011;6409;56.294;14.480;2023-03-14T10:48:53;6.70;;;2.07;;
12689;SDS011;6409;56.294;14.480;2023-03-14T10:51:24;2.60;;;1.77;;
12689;SDS011;6409;56.294;14.480;2023-03-14T10:53:55;2.00;;;1.73;;
12689;SDS011;6409;56.294;14.480;2023-03-14T10:56:24;1.57;;;1.43;;
12689;SDS011;6409;56.294;14.480;2023-03-14T10:58:53;1.60;;;1.50;;
12689;SDS011;6409;56.294;14.480;2023-03-14T11:01:28;2.33;;;1.70;;
12689;SDS011;6409;56.294;14.480;2023-03-14T11:04:03;1.70;;;1.30;;
12689;SDS011;6409;56.294;14.480;2023-03-14T11:06:39;2.40;;;1.37;;
12689;SDS011;6409;56.294;14.480;2023-03-14T11:09:10;3.53;;;2.03;;
12689;SDS011;6409;56.294;14.480;2023-03-14T11:11:43;1.50;;;1.40;;
12689;SDS011;6409;56.294;14.480;2023-03-14T11:14:14;1.33;;;1.23;;
12689;SDS011;6409;56.294;14.480;2023-03-14T11:16:53;2.27;;;1.33;;
12689;SDS011;6409;56.294;14.480;2023-03-14T11:22:12;1.33;;;1.00;;
12689;SDS011;6409;56.294;14.480;2023-03-14T11:24:49;1.27;;;1.20;;
12689;SDS011;6409;56.294;14.480;2023-03-14T11:27:25;2.53;;;1.20;;
12689;SDS011;6409;56.294;14.480;2023-03-14T11:29:58;1.53;;;1.43;;
12689;SDS011;6409;56.294;14.480;2023-03-14T11:32:34;2.40;;;1.50;;
12689;SDS011;6409;56.294;14.480;2023-03-14T11:35:08;1.10;;;1.10;;
12689;SDS011;6409;56.294;14.480;2023-03-14T11:37:44;1.00;;;1.00;;
12689;SDS011;6409;56.294;14.480;2023-03-14T11:40:14;0.80;;;0.80;;
12689;SDS011;6409;56.294;14.480;2023-03-14T11:42:46;1.13;;;0.83;;
12689;SDS011;6409;56.294;14.480;2023-03-14T11:45:17;1.03;;;0.80;;
12689;SDS011;6409;56.294;14.480;2023-03-14T11:47:46;0.60;;;0.60;;
12689;SDS011;6409;56.294;14.480;2023-03-14T11:50:18;0.60;;;0.60;;
12689;SDS011;6409;56.294;14.480;2023-03-14T11:52:48;0.50;;;0.50;;
12689;SDS011;6409;56.294;14.480;2023-03-14T11:55:19;0.70;;;0.70;;
12689;SDS011;6409;56.294;14.480;2023-03-14T11:57:48;0.60;;;0.60;;
12689;SDS011;6409;56.294;14.480;2023-03-14T12:00:17;2.10;;;0.50;;
12689;SDS011;6409;56.294;14.480;2023-03-14T12:02:47;0.40;;;0.40;;
12689;SDS011;6409;56.294;14.480;2023-03-14T12:05:28;2.33;;;0.80;;
12689;SDS011;6409;56.294;14.480;2023-03-14T12:08:22;0.77;;;0.77;;
12689;SDS011;6409;56.294;14.480;2023-03-14T12:11:10;0.77;;;0.77;;
12689;SDS011;6409;56.294;14.480;2023-03-14T12:13:41;0.50;;;0.50;;
12689;SDS011;6409;56.294;14.480;2023-03-14T12:16:20;0.70;;;0.70;;
12689;SDS011;6409;56.294;14.480;2023-03-14T12:19:13;0.60;;;0.60;;
12689;SDS011;6409;56.294;14.480;2023-03-14T12:21:56;0.63;;;0.50;;
12689;SDS011;6409;56.294;14.480;2023-03-14T12:24:27;2.20;;;1.27;;
12689;SDS011;6409;56.294;14.480;2023-03-14T12:26:56;4.13;;;0.73;;
12689;SDS011;6409;56.294;14.480;2023-03-14T12:29:25;0.60;;;0.60;;
12689;SDS011;6409;56.294;14.480;2023-03-14T12:34:48;2.87;;;1.00;;
12689;SDS011;6409;56.294;14.480;2023-03-14T12:37:26;0.50;;;0.50;;
12689;SDS011;6409;56.294;14.480;2023-03-14T12:39:58;0.80;;;0.53;;
12689;SDS011;6409;56.294;14.480;2023-03-14T12:42:38;0.57;;;0.57;;
12689;SDS011;6409;56.294;14.480;2023-03-14T12:48:00;0.60;;;0.60;;
12689;SDS011;6409;56.294;14.480;2023-03-14T12:50:32;0.60;;;0.60;;
12689;SDS011;6409;56.294;14.480;2023-03-14T12:56:26;0.60;;;0.60;;
12689;SDS011;6409;56.294;14.480;2023-03-14T12:59:05;0.70;;;0.70;;
12689;SDS011;6409;56.294;14.480;2023-03-14T13:01:46;0.70;;;0.70;;
12689;SDS011;6409;56.294;14.480;2023-03-14T13:04:14;0.80;;;0.80;;
12689;SDS011;6409;56.294;14.480;2023-03-14T13:06:45;0.90;;;0.90;;
12689;SDS011;6409;56.294;14.480;2023-03-14T13:12:26;0.90;;;0.90;;
12689;SDS011;6409;56.294;14.480;2023-03-14T13:15:01;0.80;;;0.80;;
12689;SDS011;6409;56.294;14.480;2023-03-14T13:17:30;1.00;;;1.00;;
12689;SDS011;6409;56.294;14.480;2023-03-14T13:20:00;0.83;;;0.83;;
12689;SDS011;6409;56.294;14.480;2023-03-14T13:22:30;1.13;;;1.10;;
12689;SDS011;6409;56.294;14.480;2023-03-14T13:25:00;0.90;;;0.90;;
12689;SDS011;6409;56.294;14.480;2023-03-14T13:27:29;4.43;;;1.63;;
12689;SDS011;6409;56.294;14.480;2023-03-14T13:29:57;1.00;;;1.00;;
12689;SDS011;6409;56.294;14.480;2023-03-14T13:32:26;4.27;;;1.20;;
12689;SDS011;6409;56.294;14.480;2023-03-14T13:34:56;1.10;;;1.10;;
12689;SDS011;6409;56.294;14.480;2023-03-14T13:37:25;2.93;;;2.03;;
12689;SDS011;6409;56.294;14.480;2023-03-14T13:39:53;1.00;;;1.00;;
12689;SDS011;6409;56.294;14.480;2023-03-14T13:42:21;1.30;;;1.20;;
12689;SDS011;6409;56.294;14.480;2023-03-14T13:44:51;1.13;;;1.13;;
12689;SDS011;6409;56.294;14.480;2023-03-14T13:47:19;5.40;;;1.47;;
12689;SDS011;6409;56.294;14.480;2023-03-14T13:49:48;1.23;;;1.23;;
12689;SDS011;6409;56.294;14.480;2023-03-14T13:52:23;1.70;;;1.57;;
12689;SDS011;6409;56.294;14.480;2023-03-14T13:54:54;1.50;;;1.40;;
12689;SDS011;6409;56.294;14.480;2023-03-14T13:57:21;1.80;;;1.70;;
12689;SDS011;6409;56.294;14.480;2023-03-14T13:59:58;1.50;;;1.40;;
12689;SDS011;6409;56.294;14.480;2023-03-14T14:02:30;1.87;;;1.77;;
12689;SDS011;6409;56.294;14.480;2023-03-14T14:04:58;5.27;;;1.30;;
12689;SDS011;6409;56.294;14.480;2023-03-14T14:07:27;2.73;;;1.20;;
12689;SDS011;6409;56.294;14.480;2023-03-14T14:09:54;1.73;;;1.50;;
12689;SDS011;6409;56.294;14.480;2023-03-14T14:12:22;1.57;;;1.57;;
12689;SDS011;6409;56.294;14.480;2023-03-14T14:14:53;5.97;;;1.97;;
12689;SDS011;6409;56.294;14.480;2023-03-14T14:17:23;1.63;;;1.50;;
12689;SDS011;6409;56.294;14.480;2023-03-14T14:19:52;8.73;;;1.60;;
12689;SDS011;6409;56.294;14.480;2023-03-14T14:22:19;1.50;;;1.50;;
12689;SDS011;6409;56.294;14.480;2023-03-14T14:24:48;3.27;;;1.80;;
12689;SDS011;6409;56.294;14.480;2023-03-14T14:27:17;2.37;;;1.73;;
12689;SDS011;6409;56.294;14.480;2023-03-14T14:29:56;2.13;;;1.50;;
12689;SDS011;6409;56.294;14.480;2023-03-14T14:32:26;3.03;;;1.40;;
12689;SDS011;6409;56.294;14.480;2023-03-14T14:34:56;3.70;;;1.30;;
12689;SDS011;6409;56.294;14.480;2023-03-14T14:37:24;2.77;;;1.50;;
12689;SDS011;6409;56.294;14.480;2023-03-14T14:39:54;3.00;;;1.60;;
12689;SDS011;6409;56.294;14.480;2023-03-14T14:42:24;1.30;;;1.30;;
12689;SDS011;6409;56.294;14.480;2023-03-14T14:44:52;7.50;;;1.90;;
12689;SDS011;6409;56.294;14.480;2023-03-14T14:47:20;2.00;;;1.80;;
12689;SDS011;6409;56.294;14.480;2023-03-14T14:49:48;6.90;;;2.20;;
12689;SDS011;6409;56.294;14.480;2023-03-14T14:52:16;1.77;;;1.70;;
12689;SDS011;6409;56.294;14.480;2023-03-14T14:54:44;3.20;;;1.87;;
12689;SDS011;6409;56.294;14.480;2023-03-14T14:57:17;1.40;;;1.40;;
12689;SDS011;6409;56.294;14.480;2023-03-14T14:59:47;1.93;;;1.83;;
12689;SDS011;6409;56.294;14.480;2023-03-14T15:02:24;1.63;;;1.40;;
12689;SDS011;6409;56.294;14.480;2023-03-14T15:04:55;1.37;;;1.37;;
12689;SDS011;6409;56.294;14.480;2023-03-14T15:07:22;1.20;;;1.20;;
12689;SDS011;6409;56.294;14.480;2023-03-14T15:09:49;2.70;;;1.73;;
12689;SDS011;6409;56.294;14.480;2023-03-14T15:12:17;4.57;;;1.80;;
12689;SDS011;6409;56.294;14.480;2023-03-14T15:14:45;1.53;;;1.40;;